Time;durP1;ratioP1;P1;durP2;ratioP2;P2;SDS_P1;SDS_P2;PMS_P1;PMS_P2;Temp;Humidity;BMP_temperature;BMP_pressure;BME280_temperature;BME280_humidity;BME280_pressure;Samples;Min_cycle;Max_cycle;Signal;HPM_P1;HPM_P2
2023/10/01 00:00:28;;;;;;;;;;;10.60;99.90;;;9.66;100.00;98624.91;5017576;28;20063;-74
2023/10/01 00:02:59;;;;;;;;;;;10.60;99.90;;;9.68;100.00;98623.16;5032478;28;19929;-77
2023/10/01 00:05:26;;;;;;;;;;;10.50;99.90;;;9.51;100.00;98618.31;5015490;28;19934;-76
2023/10/01 00:07:53;;;;;;;;;;;10.50;99.90;;;9.41;100.00;98615.91;5028382;28;19929;-75
2023/10/01 00:10:22;;;;;;;;;;;10.50;99.90;;;9.37;100.00;98611.72;5027406;28;19999;-76
2023/10/01 00:12:50;;;;;;;;;;;10.50;99.90;;;9.44;100.00;98612.41;5022154;28;19929;-75
2023/10/01 00:15:21;;;;;;;;;;;10.50;99.90;;;9.42;100.00;98616.78;5021959;28;19925;-75
2023/10/01 00:17:51;;;;;;;;;;;10.40;99.90;;;9.40;100.00;98621.16;5027400;28;19925;-74
2023/10/01 00:20:23;;;;;;;;;;;10.50;99.90;;;9.37;100.00;98609.13;5029144;28;20366;-74
2023/10/01 00:23:02;;;;;;;;;;;10.40;99.90;;;9.42;100.00;98609.88;5019348;28;19933;-75
2023/10/01 00:25:32;;;;;;;;;;;10.40;99.90;;;9.40;100.00;98608.19;5026889;28;19929;-75
2023/10/01 00:28:00;;;;;;;;;;;10.40;99.90;;;9.37;100.00;98606.53;5055353;28;19929;-75
2023/10/01 00:30:33;;;;;;;;;;;10.40;99.90;;;9.39;100.00;98604.72;5022449;28;19941;-75
2023/10/01 00:33:06;;;;;;;;;;;10.40;99.90;;;9.29;100.00;98610.16;5037313;28;19929;-74
2023/10/01 00:35:38;;;;;;;;;;;10.40;99.90;;;9.39;100.00;98606.47;5024870;28;19936;-74
2023/10/01 00:38:06;;;;;;;;;;;10.30;99.90;;;9.33;100.00;98604.88;5023370;28;20027;-75
2023/10/01 00:40:33;;;;;;;;;;;10.30;99.90;;;9.38;100.00;98608.22;5021773;28;19929;-74
2023/10/01 00:43:02;;;;;;;;;;;10.30;99.90;;;9.44;100.00;98604.63;5023533;28;19929;-74
2023/10/01 00:45:30;;;;;;;;;;;10.40;99.90;;;9.31;100.00;98613.56;5006430;28;20056;-75
2023/10/01 00:48:03;;;;;;;;;;;10.50;99.90;;;9.11;100.00;98609.63;5024060;28;19933;-75
2023/10/01 00:50:32;;;;;;;;;;;10.40;99.90;;;9.05;100.00;98603.72;5022389;28;19929;-75
2023/10/01 00:52:58;;;;;;;;;;;10.40;99.90;;;9.10;100.00;98607.94;5025447;28;20019;-75
2023/10/01 00:55:26;;;;;;;;;;;10.30;99.90;;;9.22;100.00;98612.03;5052895;28;19975;-75
2023/10/01 00:57:54;;;;;;;;;;;10.30;99.90;;;9.19;100.00;98620.72;5023254;28;20024;-75
2023/10/01 01:00:23;;;;;;;;;;;10.30;99.90;;;9.24;100.00;98612.84;5024152;28;19936;-75
2023/10/01 01:02:58;;;;;;;;;;;10.30;99.90;;;9.14;100.00;98603.53;5021844;28;19999;-75
2023/10/01 01:05:37;;;;;;;;;;;10.40;99.90;;;9.20;100.00;98609.44;5023623;28;19933;-74
2023/10/01 01:08:07;;;;;;;;;;;10.40;99.90;;;9.14;100.00;98601.78;5009809;28;20382;-75
2023/10/01 01:10:41;;;;;;;;;;;10.30;99.90;;;9.02;100.00;98599.47;5021557;28;19926;-74
2023/10/01 01:13:16;;;;;;;;;;;10.30;99.90;;;8.89;100.00;98598.00;5050584;28;19936;-74
2023/10/01 01:15:51;;;;;;;;;;;10.30;99.90;;;8.97;100.00;98596.97;5024771;28;19964;-75
2023/10/01 01:18:20;;;;;;;;;;;10.30;99.90;;;9.03;100.00;98597.72;5020921;28;19932;-75
2023/10/01 01:20:57;;;;;;;;;;;10.10;99.90;;;8.90;100.00;98595.38;5024972;28;20610;-75
2023/10/01 01:23:27;;;;;;;;;;;10.00;99.90;;;8.68;100.00;98596.69;5022094;28;20416;-74
2023/10/01 01:25:54;;;;;;;;;;;10.00;99.90;;;8.91;100.00;98591.91;5024056;28;19925;-74
2023/10/01 01:28:27;;;;;;;;;;;9.90;99.90;;;8.90;100.00;98591.94;5022958;28;19929;-75
2023/10/01 01:30:55;;;;;;;;;;;9.80;99.90;;;8.86;100.00;98590.28;5020130;28;19925;-75
2023/10/01 01:33:26;;;;;;;;;;;9.70;99.90;;;8.78;100.00;98578.34;5020190;28;19925;-74
2023/10/01 01:35:54;;;;;;;;;;;9.70;99.90;;;8.86;100.00;98580.78;5004012;28;19929;-75
2023/10/01 01:38:22;;;;;;;;;;;9.70;99.90;;;8.81;100.00;98580.03;5052372;28;20024;-75
2023/10/01 01:40:51;;;;;;;;;;;9.60;99.90;;;8.79;100.00;98574.88;5022077;28;19929;-75
2023/10/01 01:43:22;;;;;;;;;;;9.60;99.90;;;8.85;100.00;98571.31;5007294;28;19925;-74
2023/10/01 01:45:56;;;;;;;;;;;9.50;99.90;;;8.84;100.00;98571.34;5022094;28;20000;-75
2023/10/01 01:48:43;;;;;;;;;;;9.50;99.90;;;8.70;100.00;98572.47;5022658;28;19936;-75
2023/10/01 01:51:10;;;;;;;;;;;9.50;99.90;;;8.69;100.00;98580.25;5019232;28;19929;-75
2023/10/01 01:53:41;;;;;;;;;;;9.40;99.90;;;8.62;100.00;98566.59;5023778;28;20478;-74
2023/10/01 01:56:11;;;;;;;;;;;9.40;99.90;;;8.53;100.00;98572.78;5010247;28;20317;-75
2023/10/01 01:58:40;;;;;;;;;;;9.40;99.90;;;8.58;100.00;98575.28;5009865;28;19991;-74
2023/10/01 02:01:08;;;;;;;;;;;9.40;99.90;;;8.51;100.00;98566.78;5029067;28;19928;-75
2023/10/01 02:03:40;;;;;;;;;;;9.30;99.90;;;8.40;100.00;98562.66;5021071;28;20312;-74
2023/10/01 02:06:07;;;;;;;;;;;9.40;99.90;;;8.50;100.00;98565.06;5026754;28;19987;-74
2023/10/01 02:08:58;;;;;;;;;;;9.30;99.90;;;8.46;100.00;98562.56;5022319;28;19933;-75
2023/10/01 02:11:32;;;;;;;;;;;9.30;99.90;;;8.46;100.00;98567.75;5010915;28;19944;-75
2023/10/01 02:14:03;;;;;;;;;;;9.40;99.90;;;8.63;100.00;98567.44;5021544;28;19956;-75
2023/10/01 02:19:17;;;;;;;;;;;9.60;99.90;;;8.75;100.00;98569.78;5020320;28;20016;-75
2023/10/01 02:21:52;;;;;;;;;;;9.70;99.90;;;8.85;100.00;98571.31;5021636;28;20012;-75
2023/10/01 02:24:37;;;;;;;;;;;9.80;99.90;;;8.87;100.00;98574.75;5027677;28;19963;-75
2023/10/01 02:27:06;;;;;;;;;;;9.90;99.90;;;8.87;100.00;98573.88;5025425;28;20409;-75
2023/10/01 02:29:45;;;;;;;;;;;9.90;99.90;;;8.78;100.00;98569.72;5021500;28;19940;-75
2023/10/01 02:32:17;;;;;;;;;;;9.90;99.90;;;8.85;100.00;98573.03;5024402;28;19933;-75
2023/10/01 02:34:44;;;;;;;;;;;10.00;99.90;;;8.89;100.00;98570.34;5025193;28;19925;-75
2023/10/01 02:37:25;;;;;;;;;;;10.00;99.90;;;8.94;100.00;98581.50;5026431;28;19935;-74
2023/10/01 02:39:53;;;;;;;;;;;10.00;99.90;;;8.81;100.00;98577.44;5023321;28;19944;-75
2023/10/01 02:42:26;;;;;;;;;;;10.00;99.90;;;8.77;100.00;98579.22;5005034;28;20409;-75
2023/10/01 02:44:53;;;;;;;;;;;9.90;99.90;;;8.72;100.00;98570.69;5019949;28;19931;-75
2023/10/01 02:47:23;;;;;;;;;;;9.90;99.90;;;8.79;100.00;98569.69;5025006;28;20464;-75
2023/10/01 02:49:53;;;;;;;;;;;9.90;99.90;;;8.73;100.00;98572.41;5022632;28;19929;-75
2023/10/01 02:52:26;;;;;;;;;;;9.90;99.90;;;8.67;100.00;98562.19;5024233;28;19925;-75
2023/10/01 02:54:59;;;;;;;;;;;9.90;99.90;;;8.64;100.00;98557.03;5022824;28;19925;-75
2023/10/01 02:57:27;;;;;;;;;;;9.90;99.90;;;8.67;100.00;98559.59;5021339;28;20477;-75
2023/10/01 03:02:50;;;;;;;;;;;9.90;99.90;;;8.55;100.00;98550.34;5020804;28;19930;-74
2023/10/01 03:05:23;;;;;;;;;;;9.80;99.90;;;8.48;100.00;98547.88;5008811;28;19975;-75
2023/10/01 03:07:53;;;;;;;;;;;9.60;99.90;;;8.36;100.00;98538.56;5025866;28;20389;-75
2023/10/01 03:10:26;;;;;;;;;;;9.40;99.90;;;8.36;100.00;98538.56;5025275;28;19933;-75
2023/10/01 03:12:55;;;;;;;;;;;9.30;99.90;;;8.46;100.00;98545.34;5024928;28;19926;-75
2023/10/01 03:15:28;;;;;;;;;;;9.20;99.90;;;8.44;100.00;98541.03;5023282;28;19968;-75
2023/10/01 03:18:06;;;;;;;;;;;9.20;99.90;;;8.34;100.00;98537.75;5026578;28;19935;-75
2023/10/01 03:25:57;;;;;;;;;;;9.10;99.90;;;8.30;100.00;98531.78;5024668;28;19976;-74
2023/10/01 03:29:18;;;;;;;;;;;9.10;99.90;;;8.34;100.00;98537.75;5027850;28;20439;-75
2023/10/01 03:31:24;;;;;;;;;;;9.10;99.90;;;8.23;100.00;98537.09;5040888;28;20457;-77
2023/10/01 03:33:54;;;;;;;;;;;9.10;99.90;;;8.18;100.00;98527.66;5010065;28;19929;-75
2023/10/01 03:36:28;;;;;;;;;;;9.10;99.90;;;8.27;100.00;98521.47;5025714;28;19935;-75
2023/10/01 03:41:54;;;;;;;;;;;9.10;99.90;;;8.25;100.00;98525.81;5024756;28;19934;-75
2023/10/01 03:44:59;;;;;;;;;;;9.00;99.90;;;8.11;100.00;98523.47;5026028;28;19930;-75
2023/10/01 03:47:09;;;;;;;;;;;9.10;99.90;;;8.16;100.00;98524.28;5024512;28;19945;-75
2023/10/01 03:49:46;;;;;;;;;;;9.10;99.90;;;8.25;100.00;98522.38;5025200;28;19945;-75
2023/10/01 03:52:20;;;;;;;;;;;9.20;99.90;;;8.38;100.00;98522.13;5036001;28;19929;-75
2023/10/01 03:57:27;;;;;;;;;;;9.40;99.90;;;8.37;100.00;98523.03;5028974;28;20440;-75
2023/10/01 04:00:09;;;;;;;;;;;9.40;99.90;;;8.47;100.00;98523.75;5022706;28;20019;-75
2023/10/01 04:05:30;;;;;;;;;;;9.50;99.90;;;8.47;100.00;98518.56;5025705;28;19937;-75
2023/10/01 04:08:00;;;;;;;;;;;9.40;99.90;;;8.45;100.00;98522.06;5025005;28;20024;-75
2023/10/01 04:12:58;;;;;;;;;;;9.30;99.90;;;8.29;100.00;98511.97;5024578;28;19960;-75
2023/10/01 04:15:29;;;;;;;;;;;9.40;99.90;;;8.28;100.00;98512.84;5010806;28;19929;-75
2023/10/01 04:18:33;;;;;;;;;;;9.30;99.90;;;8.24;100.00;98516.38;5024780;28;20500;-75
2023/10/01 04:23:31;;;;;;;;;;;9.10;99.90;;;8.18;100.00;98517.31;5020964;28;19933;-74
2023/10/01 04:26:04;;;;;;;;;;;9.00;99.90;;;8.12;100.00;98529.53;5023109;28;20035;-75
2023/10/01 04:28:36;;;;;;;;;;;9.00;99.90;;;8.00;100.00;98530.56;5022702;28;19933;-74
2023/10/01 04:31:09;;;;;;;;;;;9.00;99.90;;;7.90;100.00;98529.03;5022845;28;19971;-75
2023/10/01 04:33:47;;;;;;;;;;;9.00;99.90;;;7.92;100.00;98533.28;5007010;28;19972;-75
2023/10/01 04:36:20;;;;;;;;;;;9.00;99.90;;;7.94;100.00;98528.09;5024858;28;20486;-74
2023/10/01 04:38:51;;;;;;;;;;;8.90;99.90;;;7.82;100.00;98533.47;5040337;28;20294;-74
2023/10/01 04:41:19;;;;;;;;;;;8.90;99.90;;;8.00;100.00;98540.06;5021647;28;20019;-74
2023/10/01 04:43:55;;;;;;;;;;;9.00;99.90;;;8.08;100.00;98540.81;5018231;28;19964;-75
2023/10/01 04:46:29;;;;;;;;;;;9.10;99.90;;;8.16;100.00;98536.34;5024805;28;19929;-75
2023/10/01 04:48:57;;;;;;;;;;;9.20;99.90;;;8.25;100.00;98540.50;5020081;28;19937;-75
2023/10/01 04:51:44;;;;;;;;;;;9.20;99.90;;;8.22;100.00;98543.16;5012588;28;20418;-75
2023/10/01 04:54:21;;;;;;;;;;;9.30;99.90;;;8.18;100.00;98539.75;5028996;28;20010;-75
2023/10/01 04:56:49;;;;;;;;;;;9.30;99.90;;;8.21;100.00;98550.06;5009885;28;19940;-75
2023/10/01 04:59:18;;;;;;;;;;;9.30;99.90;;;8.23;100.00;98547.44;5021464;28;19929;-75
2023/10/01 05:01:47;;;;;;;;;;;9.30;99.90;;;8.14;100.00;98549.31;5025439;28;19924;-75
2023/10/01 05:04:14;;;;;;;;;;;9.30;99.90;;;7.99;100.00;98551.31;5023239;28;19979;-76
2023/10/01 05:06:59;;;;;;;;;;;9.30;99.90;;;7.86;100.00;98553.22;5025165;28;19933;-75
2023/10/01 05:09:28;;;;;;;;;;;9.20;99.90;;;7.89;100.00;98551.44;5012757;28;19925;-75
2023/10/01 05:11:55;;;;;;;;;;;9.20;99.90;;;7.92;100.00;98553.97;5023561;28;20010;-75
2023/10/01 05:14:22;;;;;;;;;;;9.10;99.90;;;7.86;100.00;98553.22;5025020;28;19983;-74
2023/10/01 05:16:54;;;;;;;;;;;9.10;99.90;;;7.92;100.00;98559.16;5021509;28;19979;-75
2023/10/01 05:19:25;;;;;;;;;;;9.10;99.90;;;7.88;100.00;98556.63;5010590;28;19967;-75
2023/10/01 05:21:56;;;;;;;;;;;9.10;99.90;;;7.95;100.00;98564.25;5022750;28;20301;-74
2023/10/01 05:24:36;;;;;;;;;;;9.10;99.90;;;7.89;100.00;98568.66;5025148;28;19929;-76
2023/10/01 05:27:08;;;;;;;;;;;9.10;99.90;;;7.91;100.00;98572.09;5025379;28;19925;-75
2023/10/01 05:29:38;;;;;;;;;;;9.10;99.90;;;8.00;100.00;98569.34;5023481;28;19935;-75
2023/10/01 05:32:06;;;;;;;;;;;9.10;99.90;;;7.94;100.00;98588.41;5023873;28;19929;-75
2023/10/01 05:34:33;;;;;;;;;;;9.10;99.90;;;7.88;100.00;98578.16;5015742;28;19948;-75
2023/10/01 05:37:12;;;;;;;;;;;9.10;99.90;;;7.92;100.00;98581.56;5020069;28;19925;-74
2023/10/01 05:39:55;;;;;;;;;;;9.10;99.90;;;8.06;100.00;98584.78;5009253;28;19937;-75
2023/10/01 05:42:28;;;;;;;;;;;9.10;99.90;;;8.05;100.00;98579.63;5021216;28;20333;-75
2023/10/01 05:44:56;;;;;;;;;;;9.20;99.90;;;7.97;100.00;98578.00;5036613;28;19929;-75
2023/10/01 05:47:23;;;;;;;;;;;9.20;99.90;;;8.08;100.00;98577.00;5018434;28;19960;-75
2023/10/01 05:49:53;;;;;;;;;;;9.20;99.90;;;7.75;100.00;98584.41;5009427;28;19980;-75
2023/10/01 05:52:21;;;;;;;;;;;9.10;99.90;;;7.72;100.00;98582.72;5021613;28;20032;-75
2023/10/01 05:54:54;;;;;;;;;;;8.90;99.90;;;7.77;100.00;98595.56;5007037;28;19953;-75
2023/10/01 05:57:21;;;;;;;;;;;8.90;99.90;;;7.91;100.00;98595.34;5022667;28;19972;-75
2023/10/01 05:59:57;;;;;;;;;;;8.80;99.90;;;7.84;100.00;98597.19;5023060;28;19929;-75
2023/10/01 06:02:41;;;;;;;;;;;8.80;99.90;;;7.99;100.00;98598.69;5009401;28;19933;-75
2023/10/01 06:05:25;;;;;;;;;;;8.80;99.90;;;8.18;100.00;98594.91;5023283;28;19959;-74
2023/10/01 06:07:54;;;;;;;;;;;8.90;99.90;;;8.27;100.00;98598.22;5020710;28;20397;-74
2023/10/01 06:10:26;;;;;;;;;;;9.10;99.90;;;8.21;100.00;98608.66;5021219;28;19928;-75
2023/10/01 06:12:56;;;;;;;;;;;9.10;99.90;;;8.02;100.00;98606.38;5019291;28;19960;-74
2023/10/01 06:15:29;;;;;;;;;;;9.20;99.90;;;8.04;100.00;98601.19;5016021;28;19936;-76
2023/10/01 06:18:00;;;;;;;;;;;9.10;99.90;;;8.17;100.00;98611.31;5018493;28;19929;-75
2023/10/01 06:20:27;;;;;;;;;;;9.20;99.90;;;8.29;100.00;98604.22;5020472;28;19933;-75
2023/10/01 06:22:58;;;;;;;;;;;9.30;99.90;;;8.48;100.00;98605.63;5003027;28;19933;-75
2023/10/01 06:25:40;;;;;;;;;;;9.40;99.90;;;8.42;100.00;98605.78;5019897;28;20696;-75
2023/10/01 06:28:09;;;;;;;;;;;9.50;99.90;;;8.69;100.00;98604.41;5010835;28;19929;-75
2023/10/01 06:30:40;;;;;;;;;;;9.50;99.90;;;8.36;100.00;98601.50;5034692;28;20401;-75
2023/10/01 06:33:09;;;;;;;;;;;9.50;99.90;;;8.37;100.00;98605.81;5019172;28;19933;-76
2023/10/01 06:35:38;;;;;;;;;;;9.40;99.90;;;8.40;100.00;98606.66;5008560;28;19932;-75
2023/10/01 06:38:05;;;;;;;;;;;9.40;99.90;;;8.59;100.00;98606.31;5008366;28;20409;-75
2023/10/01 06:40:32;;;;;;;;;;;9.50;99.90;;;8.38;100.00;98611.84;5025393;28;19983;-75
2023/10/01 06:42:59;;;;;;;;;;;9.50;99.90;;;8.64;100.00;98605.38;5025479;28;20314;-75
2023/10/01 06:45:42;;;;;;;;;;;9.50;99.90;;;8.91;100.00;98610.03;5022853;28;19929;-75
2023/10/01 06:48:10;;;;;;;;;;;9.50;99.90;;;9.07;100.00;98607.16;5024575;28;19971;-75
2023/10/01 06:50:43;;;;;;;;;;;9.70;99.90;;;9.20;100.00;98617.22;5023800;28;20017;-75
2023/10/01 06:53:13;;;;;;;;;;;9.80;99.90;;;9.18;100.00;98613.81;5008770;28;20040;-75
2023/10/01 06:55:45;;;;;;;;;;;10.00;99.90;;;9.43;100.00;98615.91;5021577;28;20310;-75
2023/10/01 06:58:13;;;;;;;;;;;10.10;99.90;;;9.61;100.00;98618.09;5012098;28;19965;-75
2023/10/01 07:00:41;;;;;;;;;;;10.30;99.90;;;9.73;100.00;98619.53;5029075;28;20588;-75
2023/10/01 07:03:18;;;;;;;;;;;10.40;99.90;;;9.76;100.00;98623.81;5022231;28;20011;-75
2023/10/01 07:05:46;;;;;;;;;;;10.50;99.90;;;9.77;100.00;98623.78;5024464;28;19925;-75
2023/10/01 07:08:16;;;;;;;;;;;10.50;99.90;;;9.55;100.00;98619.94;5025494;28;19925;-75
2023/10/01 07:10:46;;;;;;;;;;;10.40;99.90;;;9.77;100.00;98623.78;5026748;28;19925;-75
2023/10/01 07:13:15;;;;;;;;;;;10.60;99.90;;;10.02;100.00;98620.63;5012636;28;19952;-75
2023/10/01 07:15:46;;;;;;;;;;;10.70;99.90;;;10.12;100.00;98626.44;5025120;28;19930;-76
2023/10/01 07:18:15;;;;;;;;;;;10.80;99.90;;;10.25;100.00;98614.88;5013954;28;19952;-77
2023/10/01 07:20:49;;;;;;;;;;;10.90;99.90;;;10.24;100.00;98614.03;5022339;28;19930;-75
2023/10/01 07:23:21;;;;;;;;;;;11.00;99.90;;;10.20;100.00;98619.34;5025037;28;20402;-75
2023/10/01 07:25:59;;;;;;;;;;;11.00;99.90;;;10.44;100.00;98626.53;5027027;28;19933;-75
2023/10/01 07:28:31;;;;;;;;;;;11.10;99.90;;;10.91;100.00;98630.53;5011305;28;20395;-75
2023/10/01 07:31:01;;;;;;;;;;;11.20;99.90;;;11.57;100.00;98624.31;5024418;28;19930;-75
2023/10/01 07:33:29;;;;;;;;;;;11.40;99.90;;;12.06;100.00;98620.22;5027270;28;20020;-75
2023/10/01 07:35:59;;;;;;;;;;;11.70;99.90;;;12.69;100.00;98622.50;5027050;28;20672;-76
2023/10/01 07:38:29;;;;;;;;;;;12.20;99.90;;;13.18;100.00;98603.38;5025267;28;19940;-75
2023/10/01 07:40:59;;;;;;;;;;;12.90;99.90;;;13.64;100.00;98595.59;5024386;28;19929;-76
2023/10/01 07:43:27;;;;;;;;;;;13.80;99.90;;;14.47;100.00;98596.63;5003876;28;20286;-76
2023/10/01 07:45:55;;;;;;;;;;;14.70;99.90;;;15.08;100.00;98590.53;5021699;28;19926;-76
2023/10/01 07:48:23;;;;;;;;;;;15.60;99.90;;;15.43;100.00;98587.16;5023238;28;19971;-76
2023/10/01 07:50:51;;;;;;;;;;;16.40;99.90;;;16.04;100.00;98583.44;5025076;28;19929;-77
2023/10/01 07:53:18;;;;;;;;;;;17.10;99.90;;;16.37;100.00;98587.09;5024291;28;19929;-76
2023/10/01 07:55:46;;;;;;;;;;;17.80;99.90;;;16.76;100.00;98586.81;5022047;28;19933;-76
2023/10/01 07:58:23;;;;;;;;;;;18.30;99.90;;;17.10;100.00;98598.22;5025767;28;19929;-76
2023/10/01 08:01:17;;;;;;;;;;;18.60;99.90;;;17.36;100.00;98594.22;5022242;28;20028;-76
2023/10/01 08:03:55;;;;;;;;;;;18.90;99.90;;;18.51;100.00;98593.00;5023075;28;19939;-76
2023/10/01 08:06:34;;;;;;;;;;;19.20;99.90;;;17.73;100.00;98603.53;5023461;28;19933;-76
2023/10/01 08:09:05;;;;;;;;;;;19.80;99.90;;;18.28;100.00;98596.97;5023006;28;20024;-73
2023/10/01 08:11:58;;;;;;;;;;;20.40;99.90;;;18.42;100.00;98596.16;5025419;28;19987;-74
2023/10/01 08:14:33;;;;;;;;;;;20.80;99.90;;;19.39;100.00;98606.19;5048020;28;20170;-74
2023/10/01 08:17:02;;;;;;;;;;;20.70;99.90;;;18.80;100.00;98617.59;5023816;28;19925;-74
2023/10/01 08:19:44;;;;;;;;;;;21.00;99.90;;;19.97;100.00;98610.41;5023257;28;20012;-74
2023/10/01 08:22:15;;;;;;;;;;;21.60;99.90;;;20.50;100.00;98614.88;5024469;28;20411;-74
2023/10/01 08:24:49;;;;;;;;;;;;;;;20.79;100.00;98621.72;5020932;28;19955;-74
2023/10/01 08:27:32;;;;;;;;;;;22.70;99.90;;;21.04;100.00;98626.16;5021397;28;20413;-74
2023/10/01 08:30:17;;;;;;;;;;;23.00;99.90;;;20.09;100.00;98624.56;5020242;28;19948;-74
2023/10/01 08:32:53;;;;;;;;;;;23.00;99.90;;;20.91;100.00;98616.56;5019246;28;19991;-74
2023/10/01 08:35:32;;;;;;;;;;;22.60;99.90;;;21.85;100.00;98618.78;5037598;28;20469;-74
2023/10/01 08:38:00;;;;;;;;;;;22.40;99.90;;;20.91;100.00;98627.94;5022273;28;19933;-73
2023/10/01 08:40:28;;;;;;;;;;;22.70;99.90;;;21.23;100.00;98624.91;5008631;28;19967;-74
2023/10/01 08:42:58;;;;;;;;;;;22.60;99.90;;;20.68;100.00;98626.88;5018085;28;19933;-74
2023/10/01 08:45:37;;;;;;;;;;;22.50;99.90;;;20.87;100.00;98624.69;5021028;28;20460;-74
2023/10/01 08:48:17;;;;;;;;;;;21.90;99.90;;;21.20;100.00;98636.50;5036772;28;20357;-74
2023/10/01 08:50:45;;;;;;;;;;;21.50;99.90;;;20.94;100.00;98642.72;5022957;28;19933;-74
2023/10/01 08:53:13;;;;;;;;;;;21.80;99.90;;;21.11;100.00;98637.16;5018678;28;19971;-74
2023/10/01 09:01:10;;;;;;;;;;;22.90;99.90;;;21.38;100.00;98633.56;5021013;28;19925;-74
2023/10/01 09:03:39;;;;;;;;;;;;;;;21.05;100.00;98638.44;5018037;28;19929;-75
2023/10/01 09:06:08;;;;;;;;;;;22.70;99.90;;;22.08;100.00;98641.75;5014948;28;20405;-75
2023/10/01 09:08:43;;;;;;;;;;;22.40;99.90;;;21.66;100.00;98635.13;5006492;28;19975;-77
2023/10/01 09:11:15;;;;;;;;;;;22.70;99.90;;;20.86;100.00;98641.47;5025267;28;19933;-77
2023/10/01 09:13:58;;;;;;;;;;;22.60;99.90;;;21.21;100.00;98630.31;5025332;28;19929;-77
2023/10/01 09:16:32;;;;;;;;;;;23.10;99.90;;;21.02;100.00;98637.78;5025188;28;19964;-78
2023/10/01 09:19:03;;;;;;;;;;;23.00;99.90;;;20.78;100.00;98635.03;5022657;28;19943;-78
2023/10/01 09:21:38;;;;;;;;;;;23.00;99.90;;;20.24;100.00;98631.47;5022857;28;20301;-79
2023/10/01 09:24:38;;;;;;;;;;;23.20;99.90;;;20.13;100.00;98620.78;5025782;28;20444;-78
2023/10/01 09:27:18;;;;;;;;;;;22.90;99.90;;;19.15;100.00;98625.16;5026817;28;19929;-79
2023/10/01 09:29:48;;;;;;;;;;;22.80;99.90;;;18.83;100.00;98615.72;5008829;28;20427;-77
2023/10/01 09:32:17;;;;;;;;;;;22.30;99.90;;;19.23;100.00;98619.44;5028943;28;19968;-79
2023/10/01 09:34:53;;;;;;;;;;;21.60;99.90;;;19.05;100.00;98617.94;5024799;28;19925;-77
2023/10/01 09:37:42;;;;;;;;;;;21.60;99.90;;;19.18;100.00;98616.22;5028615;28;19933;-78
2023/10/01 09:40:54;;;;;;;;;;;21.00;99.90;;;19.39;100.00;98614.91;5031283;28;19929;-79
2023/10/01 09:43:03;;;;;;;;;;;20.80;99.90;;;19.28;100.00;98613.88;5025631;28;19933;-78
2023/10/01 09:45:37;;;;;;;;;;;20.60;99.90;;;19.03;100.00;98623.28;5009137;28;19935;-77
2023/10/01 09:48:09;;;;;;;;;;;;;;;19.04;100.00;98622.31;5031886;28;19925;-79
2023/10/01 09:50:43;;;;;;;;;;;20.20;99.90;;;18.78;100.00;98606.31;5033266;28;19941;-78
2023/10/01 09:53:12;;;;;;;;;;;20.00;99.90;;;19.10;100.00;98618.50;5028932;28;19991;-77
2023/10/01 09:55:49;;;;;;;;;;;20.00;99.90;;;19.00;100.00;98613.78;5030537;28;19940;-77
2023/10/01 09:58:24;;;;;;;;;;;19.80;99.90;;;18.76;100.00;98609.97;5028238;28;19992;-79
2023/10/01 10:00:53;;;;;;;;;;;19.80;99.90;;;18.98;100.00;98615.66;5027190;28;20298;-78
2023/10/01 10:03:21;;;;;;;;;;;;;;;18.72;100.00;98608.44;5012673;28;20008;-79
2023/10/01 10:05:48;;;;;;;;;;;19.70;99.90;;;18.73;100.00;98613.63;5028064;28;20579;-78
2023/10/01 10:08:20;;;;;;;;;;;19.40;99.90;;;18.91;100.00;98611.72;5029786;28;20370;-78
2023/10/01 10:10:52;;;;;;;;;;;19.40;99.90;;;19.09;100.00;98615.03;5043342;28;19929;-77
2023/10/01 10:13:57;;;;;;;;;;;19.40;99.90;;;19.09;100.00;98611.50;5004703;28;19933;-73
2023/10/01 10:16:35;;;;;;;;;;;19.40;99.90;;;19.24;100.00;98613.22;5032437;28;19929;-74
2023/10/01 10:19:06;;;;;;;;;;;19.50;99.90;;;19.16;100.00;98610.22;5019733;28;19929;-73
2023/10/01 10:24:46;;;;;;;;;;;19.50;99.90;;;19.16;100.00;98610.22;5022396;28;19930;-73
2023/10/01 10:27:19;;;;;;;;;;;19.40;99.90;;;19.07;100.00;98611.63;5021176;28;20030;-73
2023/10/01 10:29:46;;;;;;;;;;;19.40;99.90;;;19.28;100.00;98614.72;5022007;28;20175;-74
2023/10/01 10:32:13;;;;;;;;;;;19.50;99.90;;;19.22;100.00;98608.03;5020162;28;19929;-76
2023/10/01 10:35:06;;;;;;;;;;;19.50;99.90;;;19.52;100.00;98614.13;5019794;28;19979;-76
2023/10/01 10:37:36;;;;;;;;;;;19.70;99.90;;;19.44;100.00;98604.94;5021479;28;19929;-75
2023/10/01 10:42:47;;;;;;;;;;;19.80;99.90;;;19.38;100.00;98604.47;5017968;28;19925;-75
2023/10/01 10:45:24;;;;;;;;;;;19.70;99.90;;;19.50;100.00;98597.59;5018434;28;20412;-74
2023/10/01 10:48:02;;;;;;;;;;;19.80;99.90;;;19.37;100.00;98606.25;5019844;28;20043;-75
2023/10/01 10:51:02;;;;;;;;;;;19.80;99.90;;;19.37;100.00;98598.38;5005498;28;19948;-75
2023/10/01 10:53:43;;;;;;;;;;;19.70;99.90;;;19.69;100.00;98599.97;5019798;28;19941;-75
2023/10/01 10:56:13;;;;;;;;;;;20.00;99.90;;;19.70;100.00;98599.00;5049877;28;19937;-76
2023/10/01 10:58:43;;;;;;;;;;;20.10;99.90;;;19.62;100.00;98599.47;5023731;28;20275;-75
2023/10/01 11:01:22;;;;;;;;;;;20.10;99.90;;;19.90;100.00;98595.94;5021556;28;19929;-74
2023/10/01 11:03:57;;;;;;;;;;;20.20;99.90;;;19.96;100.00;98592.06;5021259;28;20512;-73
2023/10/01 11:06:39;;;;;;;;;;;20.20;99.90;;;20.12;100.00;98598.03;5020899;28;19933;-74
2023/10/01 11:09:24;;;;;;;;;;;20.40;99.90;;;20.04;100.00;98587.97;5020776;28;19929;-74
2023/10/01 11:11:58;;;;;;;;;;;20.50;99.90;;;19.96;100.00;98590.28;5018882;28;19934;-73
2023/10/01 11:14:25;;;;;;;;;;;20.50;99.90;;;20.16;100.00;98590.75;5019438;28;19940;-75
2023/10/01 11:16:52;;;;;;;;;;;20.50;99.90;;;20.41;100.00;98592.59;5022197;28;19965;-75
2023/10/01 11:19:28;;;;;;;;;;;20.60;99.90;;;20.33;100.00;98601.03;5017831;28;19932;-74
2023/10/01 11:22:00;;;;;;;;;;;20.70;99.90;;;20.37;100.00;98592.00;5017940;28;19933;-74
2023/10/01 11:24:34;;;;;;;;;;;20.70;99.90;;;20.22;100.00;98585.09;5028423;28;19929;-74
2023/10/01 11:27:22;;;;;;;;;;;20.60;99.90;;;20.55;100.00;98582.00;5021414;28;19936;-74
2023/10/01 11:30:24;;;;;;;;;;;20.80;99.90;;;20.60;100.00;98581.72;5023571;28;20039;-74
2023/10/01 11:32:59;;;;;;;;;;;21.00;99.90;;;20.87;100.00;98584.28;5018804;28;20398;-74
2023/10/01 11:35:33;;;;;;;;;;;21.10;99.90;;;20.66;100.00;98576.00;5026926;28;19941;-74
2023/10/01 11:38:10;;;;;;;;;;;20.80;99.90;;;20.42;100.00;98575.84;5021673;28;19932;-74
2023/10/01 11:43:28;;;;;;;;;;;20.80;99.90;;;20.48;100.00;98572.78;5026935;28;19925;-74
2023/10/01 11:46:19;;;;;;;;;;;20.80;99.90;;;20.78;100.00;98563.81;5030047;28;19925;-74
2023/10/01 11:48:59;;;;;;;;;;;20.90;99.90;;;20.77;100.00;98562.94;5023904;28;20426;-74
2023/10/01 11:51:43;;;;;;;;;;;21.10;99.90;;;20.83;100.00;98569.59;5050034;28;20020;-74
2023/10/01 11:54:43;;;;;;;;;;;21.00;99.90;;;20.95;100.00;98560.81;5026453;28;19936;-75
2023/10/01 11:57:23;;;;;;;;;;;21.00;99.90;;;21.04;100.00;98565.47;5054001;28;19932;-74
2023/10/01 11:59:55;;;;;;;;;;;21.00;99.90;;;20.81;100.00;98550.38;5010719;28;19925;-74
2023/10/01 12:02:26;;;;;;;;;;;21.00;99.90;;;20.99;100.00;98558.81;5028389;28;20401;-74
2023/10/01 12:04:57;;;;;;;;;;;21.20;99.90;;;21.23;100.00;98548.31;5022240;28;19929;-74
2023/10/01 12:07:31;;;;;;;;;;;21.40;99.90;;;21.23;100.00;98550.97;5026860;28;20697;-74
2023/10/01 12:10:04;;;;;;;;;;;21.50;99.90;;;21.36;100.00;98545.66;5022797;28;19943;-74
2023/10/01 12:12:39;;;;;;;;;;;21.60;99.90;;;21.39;100.00;98546.28;5023845;28;19933;-73
2023/10/01 12:17:52;;;;;;;;;;;21.60;99.90;;;21.72;100.00;98547.50;5024397;28;20667;-74
2023/10/01 12:20:22;;;;;;;;;;;21.60;99.90;;;21.71;100.00;98544.00;5025951;28;20312;-74
2023/10/01 12:25:46;;;;;;;;;;;21.90;99.90;;;21.84;100.00;98527.25;5022136;28;20465;-74
2023/10/01 12:28:29;;;;;;;;;;;22.00;99.90;;;22.20;100.00;98531.59;5023612;28;19929;-74
2023/10/01 12:31:00;;;;;;;;;;;22.10;99.90;;;21.94;100.00;98525.63;5052798;28;19963;-74